Time;durP1;ratioP1;P1;durP2;ratioP2;P2;SDS_P1;SDS_P2;PMS_P1;PMS_P2;Temp;Humidity;BMP_temperature;BMP_pressure;BME280_temperature;BME280_humidity;BME280_pressure;Samples;Min_cycle;Max_cycle;Signal;HPM_P1;HPM_P2
2024/01/23 00:00:55;;;;;;;0.50;0.20;;;8.20;99.90;;;;;;5063316;28;20471;-76
2024/01/23 00:03:25;;;;;;;0.50;0.10;;;8.20;99.90;;;;;;5064887;28;20462;-75
2024/01/23 00:05:53;;;;;;;0.50;0.10;;;8.10;99.90;;;;;;5064359;28;20448;-76
2024/01/23 00:08:21;;;;;;;0.50;0.10;;;8.10;99.90;;;;;;5073034;28;20541;-76
2024/01/23 00:10:49;;;;;;;0.60;0.30;;;8.10;99.90;;;;;;5063616;28;20483;-76
2024/01/23 00:13:17;;;;;;;0.60;0.37;;;8.10;99.90;;;;;;5071419;28;20967;-75
2024/01/23 00:15:46;;;;;;;0.50;0.10;;;8.00;99.90;;;;;;5073190;28;20939;-74
2024/01/23 00:18:14;;;;;;;0.50;0.10;;;8.00;99.90;;;;;;5059089;28;20500;-75
2024/01/23 00:20:42;;;;;;;0.50;0.10;;;8.00;99.90;;;;;;5070539;28;20445;-75
2024/01/23 00:23:10;;;;;;;0.50;0.10;;;8.10;99.90;;;;;;5064658;28;20488;-75
2024/01/23 00:25:38;;;;;;;2.77;0.20;;;8.10;99.90;;;;;;5073055;28;20856;-75
2024/01/23 00:28:07;;;;;;;8.73;3.90;;;8.10;99.90;;;;;;5072106;28;20519;-75
2024/01/23 00:30:35;;;;;;;1.07;0.30;;;8.00;99.90;;;;;;5068662;28;20475;-75
2024/01/23 00:33:04;;;;;;;1.13;1.13;;;9.50;99.90;;;;;;5064387;28;20441;-74
2024/01/23 00:35:33;;;;;;;1.57;0.40;;;8.00;99.90;;;;;;5072758;28;20453;-75
2024/01/23 00:38:00;;;;;;;5.13;2.43;;;8.00;99.90;;;;;;5072201;28;20570;-74
2024/01/23 00:40:28;;;;;;;0.50;0.10;;;6.40;99.90;;;;;;5072411;28;20536;-75
2024/01/23 00:42:56;;;;;;;0.50;0.10;;;7.90;99.90;;;;;;5064144;28;20450;-76
2024/01/23 00:45:24;;;;;;;0.50;0.10;;;7.90;99.90;;;;;;5071956;28;20435;-77
2024/01/23 00:47:52;;;;;;;0.80;0.40;;;8.00;99.90;;;;;;5071227;28;20514;-76
2024/01/23 00:50:22;;;;;;;0.50;0.20;;;8.00;99.90;;;;;;5066385;28;20444;-75
2024/01/23 00:52:49;;;;;;;0.50;0.10;;;8.10;99.90;;;;;;5073150;28;20522;-76
2024/01/23 00:55:17;;;;;;;0.50;0.20;;;8.10;99.90;;;;;;5075918;28;20535;-75
2024/01/23 00:57:45;;;;;;;0.50;0.10;;;8.10;99.90;;;;;;5074308;28;20503;-75
2024/01/23 01:00:14;;;;;;;0.50;0.23;;;8.10;99.90;;;;;;5073933;28;20458;-74
2024/01/23 01:02:42;;;;;;;0.50;0.10;;;8.10;99.90;;;;;;5064531;28;20548;-75
2024/01/23 01:05:10;;;;;;;1.13;0.60;;;8.10;99.90;;;;;;5062473;28;20504;-75
2024/01/23 01:07:39;;;;;;;0.50;0.10;;;8.10;99.90;;;;;;5071399;28;21155;-75
2024/01/23 01:10:08;;;;;;;5.53;0.97;;;8.10;99.90;;;;;;5072143;28;20442;-77
2024/01/23 01:12:37;;;;;;;0.50;0.10;;;;;;;;;;5074892;28;20517;-76
2024/01/23 01:15:05;;;;;;;0.50;0.10;;;8.00;99.90;;;;;;5059554;28;20541;-76
2024/01/23 01:17:33;;;;;;;0.70;0.20;;;8.00;99.90;;;;;;5076194;28;20490;-76
2024/01/23 01:20:01;;;;;;;2.80;1.13;;;8.00;99.90;;;;;;5076115;28;20577;-76
2024/01/23 01:22:29;;;;;;;1.90;1.80;;;8.00;99.90;;;;;;5077109;28;20505;-76
2024/01/23 01:24:58;;;;;;;36.80;1.47;;;8.00;99.90;;;;;;5069025;28;20792;-76
2024/01/23 01:27:26;;;;;;;0.50;0.27;;;7.90;99.90;;;;;;5060493;28;20897;-75
2024/01/23 01:29:54;;;;;;;0.50;0.20;;;7.80;99.90;;;;;;5062891;28;20436;-75
2024/01/23 01:32:22;;;;;;;0.60;0.30;;;7.80;99.90;;;;;;5063538;28;20551;-75
2024/01/23 01:34:50;;;;;;;0.50;0.10;;;7.90;99.90;;;;;;5053494;28;20874;-75
2024/01/23 01:37:18;;;;;;;0.50;0.10;;;7.90;99.90;;;;;;5071623;28;20476;-75
2024/01/23 01:39:46;;;;;;;0.50;0.10;;;7.90;99.90;;;;;;5053872;28;20466;-75
2024/01/23 01:42:15;;;;;;;0.50;0.40;;;7.80;99.90;;;;;;5051538;28;20867;-75
2024/01/23 01:44:43;;;;;;;0.50;0.10;;;7.70;99.90;;;;;;5051236;28;20495;-75
2024/01/23 01:47:11;;;;;;;0.50;0.10;;;7.70;99.90;;;;;;5051002;28;20469;-77
2024/01/23 01:49:39;;;;;;;0.50;0.10;;;7.70;99.90;;;;;;5051263;28;20448;-75
2024/01/23 01:52:07;;;;;;;0.60;0.47;;;7.70;99.90;;;;;;5063765;28;20571;-75
2024/01/23 01:54:36;;;;;;;0.50;0.10;;;7.70;99.90;;;;;;5071180;28;20444;-76
2024/01/23 01:57:04;;;;;;;2.40;0.50;;;7.70;99.90;;;;;;5068056;28;20556;-76
2024/01/23 01:59:36;;;;;;;0.70;0.50;;;7.70;99.90;;;;;;5059399;28;20494;-75
2024/01/23 02:02:07;;;;;;;1.73;0.80;;;7.70;99.90;;;;;;5051494;28;20543;-74
2024/01/23 02:04:35;;;;;;;0.60;0.30;;;7.70;99.90;;;;;;5051476;28;20467;-75
2024/01/23 02:07:03;;;;;;;0.50;0.20;;;7.80;99.90;;;;;;5051518;28;20997;-75
2024/01/23 02:09:31;;;;;;;0.87;0.57;;;7.80;99.90;;;;;;5055886;28;20969;-76
2024/01/23 02:12:00;;;;;;;5.53;5.07;;;7.90;99.90;;;;;;5061745;28;20813;-75
2024/01/23 02:14:29;;;;;;;0.50;0.10;;;7.90;99.90;;;;;;5068983;28;20463;-75
2024/01/23 02:16:58;;;;;;;0.53;0.23;;;7.90;99.90;;;;;;5069874;28;20464;-76
2024/01/23 02:19:27;;;;;;;0.50;0.10;;;7.90;99.90;;;;;;5056509;28;20451;-76
2024/01/23 02:21:55;;;;;;;1.57;0.40;;;7.90;99.90;;;;;;5050969;28;20442;-75
2024/01/23 02:24:24;;;;;;;1.47;0.30;;;7.90;99.90;;;;;;5067662;28;20516;-76
2024/01/23 02:26:52;;;;;;;3.57;0.60;;;7.80;99.90;;;;;;5075052;28;20464;-76
2024/01/23 02:29:20;;;;;;;0.50;0.10;;;7.80;99.90;;;;;;5074996;28;20442;-76
2024/01/23 02:31:48;;;;;;;0.50;0.10;;;7.80;99.90;;;;;;5074753;28;20448;-76
2024/01/23 02:34:16;;;;;;;0.50;0.10;;;7.80;99.90;;;;;;5074726;28;20443;-76
2024/01/23 02:36:44;;;;;;;0.50;0.10;;;7.80;99.90;;;;;;5057709;28;21227;-74
2024/01/23 02:39:12;;;;;;;0.50;0.10;;;7.60;99.90;;;;;;5055022;28;20530;-75
2024/01/23 02:41:40;;;;;;;0.70;0.40;;;7.70;99.90;;;;;;5067916;28;20470;-76
2024/01/23 02:44:08;;;;;;;0.50;0.10;;;7.70;99.90;;;;;;5071057;28;20450;-76
2024/01/23 02:46:36;;;;;;;0.50;0.20;;;7.60;99.90;;;;;;5070363;28;20496;-76
2024/01/23 02:49:04;;;;;;;3.63;2.00;;;7.70;99.90;;;;;;5063442;28;20451;-76
2024/01/23 02:51:32;;;;;;;0.60;0.30;;;7.60;99.90;;;;;;5054439;28;20446;-75
2024/01/23 02:54:00;;;;;;;0.50;0.20;;;7.60;99.90;;;;;;5054219;28;20480;-76
2024/01/23 02:56:28;;;;;;;1.67;0.40;;;7.60;99.90;;;;;;5054669;28;20465;-74
2024/01/23 02:58:58;;;;;;;0.50;0.10;;;7.70;99.90;;;;;;5077773;28;20491;-76
2024/01/23 03:01:25;;;;;;;5.43;0.93;;;7.70;99.90;;;;;;5075281;28;20505;-74
2024/01/23 03:03:54;;;;;;;1.47;0.30;;;7.70;99.90;;;;;;5079341;28;20562;-74
2024/01/23 03:06:22;;;;;;;0.70;0.40;;;7.70;99.90;;;;;;5080215;28;20480;-76
2024/01/23 03:08:49;;;;;;;7.90;0.40;;;7.70;99.90;;;;;;5063186;28;20530;-74
2024/01/23 03:11:17;;;;;;;0.50;0.10;;;7.70;99.90;;;;;;5068414;28;20492;-76
2024/01/23 03:13:45;;;;;;;3.43;0.70;;;7.70;99.90;;;;;;5076083;28;20494;-74
2024/01/23 03:16:15;;;;;;;5.70;0.90;;;7.70;99.90;;;;;;5071759;28;20467;-75
2024/01/23 03:18:43;;;;;;;2.00;1.13;;;7.70;99.90;;;;;;5078072;28;20451;-75
2024/01/23 03:21:11;;;;;;;1.27;0.73;;;7.70;99.90;;;;;;5066617;28;20442;-74
2024/01/23 03:23:39;;;;;;;4.20;1.23;;;7.70;99.90;;;;;;5058738;28;20470;-75
2024/01/23 03:26:07;;;;;;;4.20;0.80;;;7.70;99.90;;;;;;5068442;28;20534;-75
2024/01/23 03:28:35;;;;;;;3.33;0.67;;;7.80;99.90;;;;;;5063015;28;20490;-75
2024/01/23 03:31:03;;;;;;;0.50;0.20;;;7.70;99.90;;;;;;5058437;28;20468;-75
2024/01/23 03:33:33;;;;;;;0.63;0.63;;;7.70;99.90;;;;;;5057096;28;20511;-74
2024/01/23 03:36:02;;;;;;;1.43;0.77;;;7.70;99.90;;;;;;5053424;28;20819;-77
2024/01/23 03:38:29;;;;;;;5.13;1.17;;;7.70;99.90;;;;;;5053865;28;20454;-76
2024/01/23 03:40:57;;;;;;;1.33;1.23;;;7.70;99.90;;;;;;5053848;28;20446;-76
2024/01/23 03:43:25;;;;;;;0.50;0.10;;;7.70;99.90;;;;;;5053490;28;20875;-76
2024/01/23 03:45:53;;;;;;;0.60;0.47;;;7.70;99.90;;;;;;5054444;28;20465;-76
2024/01/23 03:48:20;;;;;;;2.83;0.57;;;7.70;99.90;;;;;;5053942;28;20453;-75
2024/01/23 03:50:49;;;;;;;0.50;0.10;;;7.70;99.90;;;;;;5054027;28;20502;-75
2024/01/23 03:53:17;;;;;;;0.70;0.37;;;7.70;99.90;;;;;;5053498;28;20482;-75
2024/01/23 03:55:46;;;;;;;0.50;0.10;;;7.70;99.90;;;;;;5053551;28;20534;-76
2024/01/23 03:58:13;;;;;;;0.50;0.20;;;7.70;99.90;;;;;;5053407;28;20554;-75
2024/01/23 04:00:41;;;;;;;0.60;0.27;;;7.70;99.90;;;;;;5073205;28;20552;-74
2024/01/23 04:03:10;;;;;;;1.70;0.40;;;7.70;99.90;;;;;;5065327;28;20442;-75
2024/01/23 04:05:38;;;;;;;0.77;0.30;;;7.70;99.90;;;;;;5073369;28;20452;-76
2024/01/23 04:08:08;;;;;;;0.50;0.10;;;7.70;99.90;;;;;;5062585;28;20467;-76
2024/01/23 04:10:35;;;;;;;1.33;0.67;;;7.70;99.90;;;;;;5073272;28;20451;-76
2024/01/23 04:13:03;;;;;;;0.50;0.20;;;7.70;99.90;;;;;;5063273;28;20520;-77
2024/01/23 04:15:31;;;;;;;0.50;0.10;;;7.70;99.90;;;;;;5053884;28;20446;-76
2024/01/23 04:18:00;;;;;;;1.20;1.10;;;7.70;99.90;;;;;;5055073;28;20822;-77
2024/01/23 04:20:28;;;;;;;0.50;0.20;;;7.70;99.90;;;;;;5059286;28;20944;-76
2024/01/23 04:22:56;;;;;;;0.50;0.10;;;7.70;99.90;;;;;;5053160;28;20473;-76
2024/01/23 04:25:26;;;;;;;0.73;0.40;;;7.70;99.90;;;;;;5052864;28;20909;-76
2024/01/23 04:27:54;;;;;;;0.50;0.20;;;7.70;99.90;;;;;;5061434;28;20478;-76
2024/01/23 04:30:22;;;;;;;0.50;0.10;;;7.70;99.90;;;;;;5061195;28;20469;-76
2024/01/23 04:32:49;;;;;;;0.50;0.10;;;7.70;99.90;;;;;;5061954;28;20439;-76
2024/01/23 04:35:17;;;;;;;0.50;0.20;;;7.70;99.90;;;;;;5065138;28;20505;-76
2024/01/23 04:37:45;;;;;;;0.50;0.10;;;7.70;99.90;;;;;;5064435;28;20467;-76
2024/01/23 04:40:13;;;;;;;0.50;0.10;;;7.70;99.90;;;;;;5052894;28;20502;-75
2024/01/23 04:42:43;;;;;;;0.70;0.40;;;;;;;;;;5063189;28;20520;-76
2024/01/23 04:45:11;;;;;;;0.50;0.10;;;7.80;99.90;;;;;;5052972;28;20441;-76
2024/01/23 04:47:39;;;;;;;0.50;0.30;;;7.70;99.90;;;;;;5053322;28;20509;-76
2024/01/23 04:50:08;;;;;;;0.50;0.10;;;7.60;99.90;;;;;;5061023;28;20452;-76
2024/01/23 04:52:35;;;;;;;0.50;0.10;;;7.60;99.90;;;;;;5060910;28;20476;-76
2024/01/23 04:55:04;;;;;;;1.73;0.83;;;7.50;99.90;;;;;;5053087;28;20516;-76
2024/01/23 04:57:32;;;;;;;0.50;0.10;;;7.50;99.90;;;;;;5052309;28;20859;-76
2024/01/23 05:00:04;;;;;;;0.50;0.10;;;7.50;99.90;;;;;;5066994;28;20585;-76
2024/01/23 05:02:32;;;;;;;1.43;0.40;;;7.50;99.90;;;;;;5066439;28;20443;-76
2024/01/23 05:05:00;;;;;;;4.30;2.63;;;7.30;99.90;;;;;;5071113;28;20504;-76
2024/01/23 05:07:28;;;;;;;0.50;0.10;;;7.30;99.90;;;;;;5060453;28;21229;-77
2024/01/23 05:09:56;;;;;;;0.50;0.10;;;7.30;99.90;;;;;;5060755;28;20545;-77
2024/01/23 05:12:24;;;;;;;0.50;0.10;;;7.40;99.90;;;;;;5062776;28;20462;-76
2024/01/23 05:14:52;;;;;;;0.50;0.20;;;7.40;99.90;;;;;;5058982;28;20478;-76
2024/01/23 05:17:22;;;;;;;0.50;0.20;;;7.40;99.90;;;;;;5068277;28;20491;-76
2024/01/23 05:19:50;;;;;;;0.50;0.10;;;7.30;99.90;;;;;;5064067;28;20443;-76
2024/01/23 05:22:18;;;;;;;0.50;0.10;;;7.30;99.90;;;;;;5061981;28;20509;-76
2024/01/23 05:24:46;;;;;;;0.50;0.23;;;7.30;99.90;;;;;;5056185;28;20475;-76
2024/01/23 05:27:13;;;;;;;3.00;1.13;;;7.30;99.90;;;;;;5051797;28;21203;-76
2024/01/23 05:29:41;;;;;;;0.50;0.10;;;7.30;99.90;;;;;;5059996;28;20558;-76
2024/01/23 05:32:09;;;;;;;0.50;0.20;;;7.30;99.90;;;;;;5071600;28;20541;-76
2024/01/23 05:34:38;;;;;;;3.07;0.50;;;7.20;99.90;;;;;;5071561;28;20567;-76
2024/01/23 05:37:06;;;;;;;0.50;0.10;;;7.20;99.90;;;;;;5061634;28;20468;-76
2024/01/23 05:39:37;;;;;;;0.50;0.10;;;7.20;99.90;;;;;;5051426;28;20474;-76
2024/01/23 05:42:06;;;;;;;0.50;0.10;;;7.20;99.90;;;;;;5051429;28;20443;-76
2024/01/23 05:44:35;;;;;;;4.23;0.60;;;7.20;99.90;;;;;;5060658;28;20436;-77
2024/01/23 05:47:03;;;;;;;0.50;0.10;;;7.10;99.90;;;;;;5067274;28;20562;-77
2024/01/23 05:49:31;;;;;;;0.50;0.10;;;7.10;99.90;;;;;;5051122;28;20474;-77
2024/01/23 05:52:00;;;;;;;2.30;1.27;;;7.10;99.90;;;;;;5051439;28;20450;-75
2024/01/23 05:54:28;;;;;;;0.50;0.10;;;7.10;99.90;;;;;;5055763;28;20481;-77
2024/01/23 05:56:56;;;;;;;0.50;0.10;;;7.00;99.90;;;;;;5055015;28;20987;-75
2024/01/23 05:59:24;;;;;;;0.50;0.20;;;7.00;99.90;;;;;;5054676;28;20496;-76
2024/01/23 06:01:53;;;;;;;0.50;0.20;;;7.00;99.90;;;;;;5064488;28;20455;-77
2024/01/23 06:04:21;;;;;;;0.50;0.10;;;7.00;99.90;;;;;;5071407;28;20985;-77
2024/01/23 06:06:48;;;;;;;0.50;0.20;;;7.10;99.90;;;;;;5064854;28;20862;-77
2024/01/23 06:09:18;;;;;;;2.10;0.50;;;7.10;99.90;;;;;;5055965;28;20431;-77
2024/01/23 06:11:46;;;;;;;0.50;0.10;;;7.00;99.90;;;;;;5055593;28;20529;-77
2024/01/23 06:14:14;;;;;;;0.50;0.10;;;7.10;99.90;;;;;;5066414;28;20580;-76
2024/01/23 06:16:43;;;;;;;0.50;0.10;;;7.10;99.90;;;;;;5060477;28;20485;-76
2024/01/23 06:19:11;;;;;;;0.50;0.10;;;7.10;99.90;;;;;;5064194;28;20459;-76
2024/01/23 06:21:39;;;;;;;1.80;1.70;;;7.10;99.90;;;;;;5066147;28;20530;-76
2024/01/23 06:24:07;;;;;;;0.50;0.20;;;7.20;99.90;;;;;;5058095;28;20931;-76
2024/01/23 06:26:36;;;;;;;0.87;0.30;;;7.00;99.90;;;;;;5074532;28;20875;-76
2024/01/23 06:29:04;;;;;;;0.50;0.20;;;6.90;99.90;;;;;;5057328;28;20526;-76
2024/01/23 06:31:32;;;;;;;0.50;0.10;;;6.90;99.90;;;;;;5065240;28;20540;-76
2024/01/23 06:34:00;;;;;;;0.50;0.10;;;6.90;99.90;;;;;;5063922;28;20487;-76
2024/01/23 06:36:29;;;;;;;0.50;0.10;;;6.90;99.90;;;;;;5059653;28;20992;-76
2024/01/23 06:38:57;;;;;;;0.50;0.10;;;6.90;99.90;;;;;;5066051;28;20454;-77
2024/01/23 06:41:25;;;;;;;3.13;0.70;;;6.90;99.90;;;;;;5066673;28;20445;-76
2024/01/23 06:43:54;;;;;;;8.13;4.23;;;6.80;99.90;;;;;;5059479;28;20515;-77
2024/01/23 06:46:22;;;;;;;0.50;0.10;;;6.80;99.90;;;;;;5056472;28;20631;-78
2024/01/23 06:48:50;;;;;;;0.50;0.17;;;6.80;99.90;;;;;;5061818;28;20445;-76
2024/01/23 06:51:18;;;;;;;1.47;0.60;;;6.80;99.90;;;;;;5056449;28;20460;-76
2024/01/23 06:53:46;;;;;;;0.50;0.20;;;6.80;99.90;;;;;;5063363;28;20457;-77
2024/01/23 06:56:14;;;;;;;0.50;0.20;;;6.80;99.90;;;;;;5054824;28;20532;-77
2024/01/23 06:58:42;;;;;;;1.23;1.13;;;6.80;99.90;;;;;;5055064;28;20447;-77
2024/01/23 07:01:11;;;;;;;0.50;0.20;;;6.80;99.90;;;;;;5055725;28;20504;-78
2024/01/23 07:03:40;;;;;;;0.50;0.10;;;6.80;99.90;;;;;;5062047;28;20462;-77
2024/01/23 07:06:08;;;;;;;2.97;1.57;;;6.70;99.90;;;;;;5064497;28;20486;-77
2024/01/23 07:08:36;;;;;;;0.50;0.10;;;6.70;99.90;;;;;;5071393;28;20496;-77
2024/01/23 07:11:04;;;;;;;0.50;0.13;;;6.70;99.90;;;;;;5060032;28;20534;-77
2024/01/23 07:13:32;;;;;;;10.60;0.90;;;;;;;;;;5061593;28;20481;-77
2024/01/23 07:16:00;;;;;;;0.50;0.10;;;6.80;99.90;;;;;;5067680;28;20995;-77
2024/01/23 07:18:30;;;;;;;0.67;0.37;;;6.80;99.90;;;;;;5060572;28;20439;-77
2024/01/23 07:20:58;;;;;;;51.30;2.23;;;6.80;99.90;;;;;;5062998;28;20445;-77
2024/01/23 07:23:26;;;;;;;0.70;0.37;;;6.80;99.90;;;;;;5071821;28;20462;-77
2024/01/23 07:25:54;;;;;;;0.50;0.10;;;6.70;99.90;;;;;;5067634;28;21187;-77
2024/01/23 07:28:22;;;;;;;0.50;0.20;;;6.70;99.90;;;;;;5064822;28;20454;-77
2024/01/23 07:31:11;;;;;;;0.50;0.10;;;6.80;99.90;;;;;;5070570;28;20463;-77
2024/01/23 07:33:40;;;;;;;6.70;1.17;;;6.80;99.90;;;;;;5066333;28;20443;-77
2024/01/23 07:36:10;;;;;;;0.60;0.30;;;6.80;99.90;;;;;;5073001;28;20509;-77
2024/01/23 07:38:38;;;;;;;1.77;0.23;;;6.80;99.90;;;;;;5080230;28;20453;-77
2024/01/23 07:41:07;;;;;;;1.33;0.50;;;;;;;;;;5083731;28;20517;-77
2024/01/23 07:43:35;;;;;;;1.43;0.33;;;4.60;99.90;;;;;;5084772;28;20485;-77
2024/01/23 07:46:03;;;;;;;0.50;0.20;;;6.90;99.90;;;;;;5084688;28;20432;-78
2024/01/23 07:48:31;;;;;;;3.33;0.63;;;6.90;99.90;;;;;;5061454;28;20500;-77
2024/01/23 07:51:01;;;;;;;0.50;0.10;;;6.90;99.90;;;;;;5061432;28;20450;-77
2024/01/23 07:53:29;;;;;;;1.90;0.73;;;7.00;99.90;;;;;;5060182;28;20519;-77
2024/01/23 07:55:58;;;;;;;2.20;0.87;;;7.00;99.90;;;;;;5073591;28;20474;-77
2024/01/23 07:58:26;;;;;;;1.60;1.23;;;7.00;99.90;;;;;;5057146;28;20525;-77
2024/01/23 08:00:54;;;;;;;2.97;1.73;;;7.00;99.90;;;;;;5054988;28;20441;-77
2024/01/23 08:03:22;;;;;;;0.70;0.40;;;7.00;99.90;;;;;;5054863;28;20917;-78
2024/01/23 08:05:50;;;;;;;0.90;0.60;;;;;;;;;;5068512;28;20475;-78
2024/01/23 08:08:22;;;;;;;2.20;0.30;;;7.10;99.90;;;;;;5076446;28;20491;-78
2024/01/23 08:10:51;;;;;;;1.17;0.73;;;7.10;99.90;;;;;;5074214;28;20529;-77
2024/01/23 08:13:20;;;;;;;0.50;0.20;;;7.10;99.90;;;;;;5072932;28;20828;-77
2024/01/23 08:15:48;;;;;;;0.50;0.10;;;7.10;99.90;;;;;;5062774;28;20474;-77
2024/01/23 08:18:18;;;;;;;2.83;0.50;;;7.20;99.90;;;;;;5069714;28;20465;-77
2024/01/23 08:20:46;;;;;;;8.70;0.53;;;7.20;99.90;;;;;;5072638;28;20440;-78
2024/01/23 08:23:14;;;;;;;9.20;1.53;;;7.20;99.90;;;;;;5073353;28;20449;-77
2024/01/23 08:25:47;;;;;;;1.90;0.57;;;7.20;99.90;;;;;;5066726;28;20463;-75
2024/01/23 08:28:15;;;;;;;0.50;0.20;;;7.20;99.90;;;;;;5070522;28;20505;-77
2024/01/23 08:30:43;;;;;;;0.50;0.10;;;7.30;99.90;;;;;;5060804;28;20439;-78
2024/01/23 08:33:14;;;;;;;0.60;0.40;;;7.30;99.90;;;;;;5072334;28;20501;-76
2024/01/23 08:35:45;;;;;;;0.50;0.20;;;7.30;99.90;;;;;;5060830;28;20479;-76
2024/01/23 08:38:13;;;;;;;0.50;0.10;;;7.30;99.90;;;;;;5052470;28;20475;-76
2024/01/23 08:40:45;;;;;;;1.43;1.33;;;7.30;99.90;;;;;;5052775;28;20478;-77
2024/01/23 08:43:14;;;;;;;1.10;0.40;;;7.40;99.90;;;;;;5058817;28;20539;-77
2024/01/23 08:45:42;;;;;;;0.50;0.10;;;7.40;99.90;;;;;;5071917;28;20973;-76
2024/01/23 08:48:10;;;;;;;0.60;0.20;;;7.50;99.90;;;;;;5072286;28;20969;-77
2024/01/23 08:50:38;;;;;;;0.50;0.10;;;7.50;99.90;;;;;;5065021;28;20506;-77
2024/01/23 08:53:06;;;;;;;0.70;0.23;;;7.50;99.90;;;;;;5060952;28;20498;-77
2024/01/23 08:55:34;;;;;;;2.10;2.00;;;7.60;99.90;;;;;;5062483;28;20476;-77
2024/01/23 08:58:03;;;;;;;0.50;0.20;;;7.60;99.90;;;;;;5052146;28;20551;-75
2024/01/23 09:00:32;;;;;;;0.50;0.10;;;7.70;99.90;;;;;;5066776;28;20439;-76
2024/01/23 09:03:00;;;;;;;0.50;0.20;;;7.70;99.90;;;;;;5065138;28;20891;-77
2024/01/23 09:05:29;;;;;;;4.43;0.87;;;7.70;99.90;;;;;;5052807;28;20475;-77
2024/01/23 09:08:03;;;;;;;4.00;0.50;;;7.80;99.90;;;;;;5072078;28;20546;-78
2024/01/23 09:10:32;;;;;;;11.73;1.50;;;7.80;99.90;;;;;;5072928;28;20511;-77
2024/01/23 09:12:59;;;;;;;0.70;0.20;;;7.90;99.90;;;;;;5056422;28;20499;-77
2024/01/23 09:15:27;;;;;;;0.50;0.20;;;7.90;99.90;;;;;;5060917;28;20487;-77
2024/01/23 09:17:57;;;;;;;0.50;0.20;;;8.10;99.90;;;;;;5061917;28;20596;-76
2024/01/23 09:20:25;;;;;;;0.50;0.20;;;8.00;99.90;;;;;;5070041;28;20545;-78
2024/01/23 09:22:53;;;;;;;0.50;0.10;;;8.10;99.90;;;;;;5069642;28;20527;-76
2024/01/23 09:25:21;;;;;;;0.50;0.20;;;8.10;99.90;;;;;;5067778;28;20546;-76
2024/01/23 09:27:49;;;;;;;0.80;0.67;;;8.20;99.90;;;;;;5056316;28;20504;-77
2024/01/23 09:30:20;;;;;;;0.50;0.20;;;8.20;99.90;;;;;;5068436;28;20553;-78
2024/01/23 09:32:54;;;;;;;1.33;0.40;;;8.30;99.90;;;;;;5064149;28;20454;-76
2024/01/23 09:35:24;;;;;;;0.50;0.17;;;8.30;99.90;;;;;;5066180;28;20444;-77
2024/01/23 09:37:52;;;;;;;2.93;1.30;;;8.20;99.90;;;;;;5054368;28;21026;-76
2024/01/23 09:40:21;;;;;;;0.50;0.10;;;8.30;99.90;;;;;;5056222;28;20885;-76
2024/01/23 09:42:49;;;;;;;0.50;0.10;;;8.30;99.90;;;;;;5060306;28;20474;-76
2024/01/23 09:45:19;;;;;;;0.87;0.20;;;8.30;99.90;;;;;;5062220;28;20448;-75
2024/01/23 09:47:48;;;;;;;7.90;4.17;;;8.40;99.90;;;;;;5054079;28;20862;-77
2024/01/23 09:50:17;;;;;;;9.53;1.60;;;8.30;99.90;;;;;;5063537;28;20450;-77
2024/01/23 09:52:48;;;;;;;0.50;0.10;;;8.30;99.90;;;;;;5064068;28;20449;-75
2024/01/23 09:55:18;;;;;;;0.70;0.23;;;8.40;99.90;;;;;;5062540;28;20490;-77
2024/01/23 09:57:48;;;;;;;2.63;0.60;;;8.40;99.90;;;;;;5063638;28;20496;-76
2024/01/23 10:00:17;;;;;;;7.57;3.10;;;8.30;99.90;;;;;;5063900;28;20451;-76
2024/01/23 10:02:46;;;;;;;0.60;0.30;;;8.20;99.90;;;;;;5051538;28;20521;-76
2024/01/23 10:05:16;;;;;;;0.77;0.63;;;8.20;99.90;;;;;;5052656;28;20455;-77
2024/01/23 10:07:44;;;;;;;0.80;0.80;;;8.20;99.90;;;;;;5064471;28;20490;-77
2024/01/23 10:10:15;;;;;;;2.27;1.20;;;8.20;99.90;;;;;;5053409;28;20451;-77
2024/01/23 10:12:45;;;;;;;0.50;0.10;;;8.20;99.90;;;;;;5050978;28;20534;-76
2024/01/23 10:15:16;;;;;;;0.70;0.37;;;8.10;99.90;;;;;;5062676;28;20504;-77
2024/01/23 10:17:45;;;;;;;0.73;0.30;;;8.10;99.90;;;;;;5052145;28;20485;-77
2024/01/23 10:20:15;;;;;;;7.80;2.40;;;8.10;99.90;;;;;;5059145;28;20539;-76
2024/01/23 10:22:45;;;;;;;3.73;0.93;;;8.10;99.90;;;;;;5055457;28;20446;-76
2024/01/23 10:25:19;;;;;;;0.80;0.40;;;8.10;99.90;;;;;;5056394;28;20869;-76
2024/01/23 10:27:52;;;;;;;3.03;0.80;;;8.10;99.90;;;;;;5054516;28;20455;-76
2024/01/23 10:30:20;;;;;;;0.50;0.20;;;8.00;99.90;;;;;;5051727;28;20507;-76
2024/01/23 10:32:48;;;;;;;1.07;0.90;;;8.10;99.90;;;;;;5052351;28;20441;-77
2024/01/23 10:35:16;;;;;;;0.80;0.57;;;8.10;99.90;;;;;;5060803;28;20437;-77
2024/01/23 10:37:46;;;;;;;1.27;1.13;;;8.10;99.90;;;;;;5053997;28;20523;-76
2024/01/23 10:40:16;;;;;;;0.60;0.40;;;;;;;;;;5069903;28;20443;-77
2024/01/23 10:42:45;;;;;;;1.90;0.70;;;8.20;99.90;;;;;;5073847;28;20424;-76
2024/01/23 10:45:16;;;;;;;1.10;0.40;;;8.30;99.90;;;;;;5078035;28;20437;-76
2024/01/23 10:47:46;;;;;;;0.50;0.20;;;8.30;99.90;;;;;;5080649;28;20467;-77
2024/01/23 10:50:14;;;;;;;1.03;0.93;;;8.30;99.90;;;;;;5075424;28;20498;-76
2024/01/23 10:52:46;;;;;;;0.50;0.20;;;8.30;99.90;;;;;;5076665;28;20471;-76
2024/01/23 10:55:18;;;;;;;0.60;0.30;;;8.40;99.90;;;;;;5066030;28;20468;-77
2024/01/23 10:57:47;;;;;;;1.23;0.47;;;8.40;99.90;;;;;;5063406;28;20476;-75
2024/01/23 11:00:18;;;;;;;0.50;0.10;;;9.60;99.90;;;;;;5067959;28;20547;-75
2024/01/23 11:02:53;;;;;;;0.50;0.10;;;8.60;99.90;;;;;;5061630;28;20446;-76
2024/01/23 11:05:25;;;;;;;11.03;0.87;;;8.70;99.90;;;;;;5069664;28;20443;-77
2024/01/23 11:07:57;;;;;;;0.70;0.70;;;8.70;99.90;;;;;;5057895;28;20467;-75
2024/01/23 11:10:32;;;;;;;1.73;0.93;;;8.80;99.90;;;;;;5055743;28;20449;-76
2024/01/23 11:13:10;;;;;;;0.80;0.60;;;8.80;99.90;;;;;;5063618;28;20447;-77
2024/01/23 11:15:39;;;;;;;0.70;0.40;;;8.80;99.90;;;;;;5067573;28;20543;-75
2024/01/23 11:18:22;;;;;;;2.23;1.53;;;8.70;99.90;;;;;;5055241;28;20495;-77
2024/01/23 11:21:11;;;;;;;1.87;1.00;;;8.70;99.90;;;;;;5064789;28;20475;-76
2024/01/23 11:23:42;;;;;;;0.50;0.10;;;8.70;99.90;;;;;;5065020;28;20484;-76
2024/01/23 11:26:16;;;;;;;0.60;0.20;;;8.70;99.90;;;;;;5067829;28;20471;-76
2024/01/23 11:28:47;;;;;;;0.60;0.30;;;8.70;99.90;;;;;;5063971;28;20827;-77
2024/01/23 11:31:18;;;;;;;0.73;0.40;;;8.80;99.90;;;;;;5057988;28;20956;-77
2024/01/23 11:33:47;;;;;;;2.20;0.90;;;8.90;99.90;;;;;;5068952;28;20439;-77
2024/01/23 11:36:22;;;;;;;2.70;0.70;;;8.90;99.90;;;;;;5062296;28;21000;-77
2024/01/23 11:38:51;;;;;;;2.67;2.47;;;9.00;99.90;;;;;;5057785;28;20696;-77
2024/01/23 11:41:22;;;;;;;1.23;0.40;;;9.00;99.90;;;;;;5062660;28;20450;-76
2024/01/23 11:43:53;;;;;;;2.53;0.60;;;9.10;99.90;;;;;;5062350;28;20488;-77
2024/01/23 11:46:23;;;;;;;0.50;0.20;;;9.10;99.90;;;;;;5067608;28;20551;-77
2024/01/23 11:48:53;;;;;;;0.97;0.50;;;9.10;99.90;;;;;;5060048;28;20488;-77
2024/01/23 11:51:21;;;;;;;0.90;0.63;;;9.10;99.90;;;;;;5059714;28;20543;-77
2024/01/23 11:53:49;;;;;;;1.37;0.50;;;9.10;99.90;;;;;;5065715;28;20579;-78
2024/01/23 11:56:17;;;;;;;0.80;0.40;;;9.20;99.90;;;;;;5059670;28;20846;-77
2024/01/23 11:58:47;;;;;;;0.60;0.47;;;9.20;99.90;;;;;;5067273;28;20916;-77
2024/01/23 12:01:16;;;;;;;0.80;0.47;;;9.10;99.90;;;;;;5061744;28;20440;-78
2024/01/23 12:03:48;;;;;;;2.10;0.53;;;9.20;99.90;;;;;;5061221;28;20442;-78
2024/01/23 12:06:17;;;;;;;0.50;0.10;;;9.30;99.90;;;;;;5058573;28;20470;-78
2024/01/23 12:08:46;;;;;;;0.80;0.53;;;9.40;99.90;;;;;;5055003;28;21002;-77
2024/01/23 12:11:15;;;;;;;0.53;0.20;;;9.40;99.90;;;;;;5062157;28;20949;-77
2024/01/23 12:13:44;;;;;;;0.90;0.47;;;9.40;99.90;;;;;;5059565;28;20444;-77
2024/01/23 12:16:14;;;;;;;0.70;0.27;;;9.30;99.90;;;;;;5065798;28;20482;-78
2024/01/23 12:18:42;;;;;;;0.50;0.10;;;9.30;99.90;;;;;;5063053;28;20476;-77
2024/01/23 12:21:11;;;;;;;0.80;0.20;;;9.30;99.90;;;;;;5067351;28;20911;-77
2024/01/23 12:23:40;;;;;;;1.23;0.57;;;9.30;99.90;;;;;;5063851;28;20437;-78
2024/01/23 12:26:08;;;;;;;28.90;2.33;;;9.30;99.90;;;;;;5068340;28;20497;-77
2024/01/23 12:28:37;;;;;;;1.70;0.60;;;9.30;99.90;;;;;;5063245;28;20823;-78
2024/01/23 12:31:11;;;;;;;2.17;0.50;;;9.30;99.90;;;;;;5067665;28;20446;-76
2024/01/23 12:33:41;;;;;;;0.50;0.30;;;9.20;98.20;;;;;;5061139;28;20432;-76
2024/01/23 12:36:16;;;;;;;14.73;2.97;;;9.20;98.00;;;;;;5059499;28;20607;-77
2024/01/23 12:38:44;;;;;;;0.60;0.30;;;9.20;99.90;;;;;;5064418;28;20475;-77
2024/01/23 12:41:12;;;;;;;0.70;0.30;;;9.20;95.50;;;;;;5058937;28;20472;-77
2024/01/23 12:43:40;;;;;;;0.93;0.83;;;9.10;99.90;;;;;;5059801;28;20598;-76
2024/01/23 12:46:15;;;;;;;1.50;0.43;;;9.10;93.30;;;;;;5063060;28;20444;-76
2024/01/23 12:48:44;;;;;;;5.70;1.20;;;9.10;98.80;;;;;;5062280;28;20956;-76
2024/01/23 12:51:15;;;;;;;1.37;1.23;;;9.10;93.60;;;;;;5058917;28;20442;-77
2024/01/23 12:53:43;;;;;;;1.00;0.70;;;9.10;94.40;;;;;;5066339;28;20464;-78
2024/01/23 12:56:11;;;;;;;1.33;1.03;;;9.10;93.40;;;;;;5061040;28;20537;-77
2024/01/23 12:58:39;;;;;;;0.60;0.30;;;9.10;98.50;;;;;;5062975;28;20566;-77
2024/01/23 13:01:07;;;;;;;0.70;0.23;;;9.10;92.80;;;;;;5064001;28;20534;-77
2024/01/23 13:03:35;;;;;;;0.50;0.10;;;9.10;92.80;;;;;;5066837;28;20468;-75
2024/01/23 13:06:05;;;;;;;0.97;0.87;;;9.10;92.30;;;;;;5060091;28;20509;-76